Time;durP1;ratioP1;P1;durP2;ratioP2;P2;SDS_P1;SDS_P2;PMS_P1;PMS_P2;Temp;Humidity;BMP_temperature;BMP_pressure;BME280_temperature;BME280_humidity;BME280_pressure;Samples;Min_cycle;Max_cycle;Signal;HPM_P1;HPM_P2
2021/01/05 00:04:36;;;;;;;6.07;2.40;;;3.00;59.20;;;;;;5014273;28;79996;-73
2021/01/05 00:07:30;;;;;;;7.18;2.60;;;3.00;59.40;;;;;;5023749;28;80795;-73
2021/01/05 00:10:19;;;;;;;4.93;2.22;;;3.00;59.50;;;;;;5015126;28;80028;-73
2021/01/05 00:13:30;;;;;;;5.18;2.80;;;2.90;59.80;;;;;;5009831;28;80559;-72
2021/01/05 00:16:09;;;;;;;5.80;2.53;;;2.90;59.80;;;;;;4960275;28;80119;-73
2021/01/05 00:19:01;;;;;;;3.97;2.25;;;2.90;59.80;;;;;;5025942;28;80369;-73
2021/01/05 00:21:31;;;;;;;6.97;2.03;;;2.90;59.80;;;;;;5025835;28;80417;-74
2021/01/05 00:24:01;;;;;;;;;;;2.90;59.80;;;;;;4993433;28;80927;-74
2021/01/05 00:26:26;;;;;;;5.70;2.85;;;2.80;59.80;;;;;;5013192;28;80426;-73
2021/01/05 00:28:52;;;;;;;7.80;3.35;;;2.80;60.10;;;;;;5026789;28;81050;-75
2021/01/05 00:31:18;;;;;;;9.75;3.75;;;2.80;60.30;;;;;;5026560;28;80273;-74
2021/01/05 00:33:43;;;;;;;8.23;3.03;;;2.80;60.40;;;;;;5008257;28;81320;-73
2021/01/05 00:36:10;;;;;;;6.18;2.33;;;2.70;60.40;;;;;;5026515;28;81388;-74
2021/01/05 00:38:37;;;;;;;4.25;2.20;;;2.80;60.50;;;;;;5026492;28;80923;-73
2021/01/05 00:41:04;;;;;;;5.35;2.80;;;2.80;60.50;;;;;;5008223;28;80375;-72
2021/01/05 00:43:30;;;;;;;6.18;2.60;;;2.80;60.60;;;;;;5021502;28;81080;-72
2021/01/05 00:46:06;;;;;;;4.35;2.17;;;2.80;60.80;;;;;;5007728;28;80988;-74
2021/01/05 00:49:07;;;;;;;6.45;2.47;;;2.80;61.00;;;;;;5025442;28;79877;-73
2021/01/05 00:54:53;;;;;;;4.85;2.10;;;2.70;61.20;;;;;;4981886;28;80292;-74
2021/01/05 00:58:16;;;;;;;5.13;2.40;;;2.60;61.40;;;;;;5025451;28;80068;-74
2021/01/05 01:04:24;;;;;;;6.45;2.35;;;2.50;61.60;;;;;;5025558;28;80000;-74
2021/01/05 01:07:26;;;;;;;6.38;2.40;;;2.50;61.70;;;;;;5007927;28;80663;-73
2021/01/05 01:10:10;;;;;;;6.38;2.50;;;2.40;61.60;;;;;;5025125;28;80209;-74
2021/01/05 01:13:26;;;;;;;6.75;3.05;;;2.50;61.70;;;;;;4964528;28;80687;-74
2021/01/05 01:16:25;;;;;;;5.45;2.53;;;2.40;61.70;;;;;;4943550;28;80109;-75
2021/01/05 01:19:30;;;;;;;6.85;2.20;;;2.40;61.80;;;;;;4952599;28;81167;-73
2021/01/05 01:22:30;;;;;;;5.15;2.38;;;2.40;62.00;;;;;;4984973;28;80513;-73
2021/01/05 01:25:16;;;;;;;6.57;2.47;;;2.40;62.00;;;;;;4985220;28;80459;-73
2021/01/05 01:27:42;;;;;;;4.40;1.48;;;2.30;62.20;;;;;;5003601;28;80065;-74
2021/01/05 01:30:10;;;;;;;4.32;1.60;;;2.30;62.30;;;;;;4986272;28;80330;-73
2021/01/05 01:32:36;;;;;;;4.40;1.50;;;2.30;62.20;;;;;;5003031;28;80284;-73
2021/01/05 01:35:05;;;;;;;8.70;2.53;;;2.30;62.20;;;;;;4985750;28;80079;-73
2021/01/05 01:37:31;;;;;;;4.75;1.98;;;2.20;62.30;;;;;;4986235;28;80425;-73
2021/01/05 01:40:39;;;;;;;3.97;1.63;;;2.20;62.20;;;;;;4986773;28;80782;-74
2021/01/05 01:43:06;;;;;;;5.50;2.72;;;2.20;62.20;;;;;;4989379;28;80409;-73
2021/01/05 01:45:33;;;;;;;4.00;1.75;;;2.10;62.40;;;;;;5025659;28;80629;-74
2021/01/05 01:48:07;;;;;;;3.63;1.65;;;2.10;62.60;;;;;;5025717;28;79835;-72
2021/01/05 01:50:34;;;;;;;3.65;1.75;;;2.10;62.60;;;;;;5008885;28;81038;-73
2021/01/05 01:53:11;;;;;;;3.70;1.48;;;2.00;62.70;;;;;;5029036;28;80157;-75
2021/01/05 01:55:46;;;;;;;4.32;1.80;;;2.00;62.80;;;;;;5010588;28;81131;-73
2021/01/05 01:58:34;;;;;;;4.28;1.67;;;2.00;62.90;;;;;;5029169;28;79855;-73
2021/01/05 02:01:50;;;;;;;4.00;1.88;;;2.00;62.90;;;;;;5028504;28;80729;-72
2021/01/05 02:04:30;;;;;;;4.35;1.95;;;1.90;62.80;;;;;;4986567;28;79983;-72
2021/01/05 02:07:13;;;;;;;4.93;1.75;;;1.90;63.00;;;;;;5029005;28;80226;-74
2021/01/05 02:10:06;;;;;;;7.35;2.78;;;1.90;63.20;;;;;;5029026;28;80708;-73
2021/01/05 02:12:36;;;;;;;6.35;2.30;;;1.80;63.30;;;;;;5010293;28;81042;-73
2021/01/05 02:15:14;;;;;;;6.25;2.45;;;1.80;63.30;;;;;;5028669;28;80262;-73
2021/01/05 02:18:01;;;;;;;5.00;2.40;;;1.80;63.50;;;;;;5028480;28;80646;-75
2021/01/05 02:20:38;;;;;;;3.72;1.75;;;1.80;63.50;;;;;;5028694;28;80950;-73
2021/01/05 02:23:22;;;;;;;6.63;2.22;;;1.70;63.60;;;;;;5028331;28;79850;-72
2021/01/05 02:26:26;;;;;;;6.50;2.95;;;1.60;63.60;;;;;;5028523;28;80197;-73
2021/01/05 02:29:06;;;;;;;4.00;2.40;;;1.70;63.80;;;;;;5024842;28;80812;-74
2021/01/05 02:32:31;;;;;;;5.20;1.83;;;1.60;64.00;;;;;;5023922;28;80473;-73
2021/01/05 02:35:59;;;;;;;6.00;2.38;;;1.70;64.10;;;;;;5008686;28;80429;-73
2021/01/05 02:38:55;;;;;;;4.32;2.58;;;1.60;64.20;;;;;;4964675;28;80195;-73
2021/01/05 02:41:37;;;;;;;4.43;2.35;;;1.60;64.20;;;;;;4966675;28;80868;-73
2021/01/05 02:44:21;;;;;;;7.20;2.28;;;1.60;64.30;;;;;;4949906;28;80782;-73
2021/01/05 02:46:53;;;;;;;4.43;2.65;;;1.60;64.30;;;;;;4966477;28;80172;-74
2021/01/05 02:49:29;;;;;;;8.88;2.80;;;1.60;64.30;;;;;;4966078;28;80222;-74
2021/01/05 02:52:16;;;;;;;5.05;2.72;;;1.60;64.30;;;;;;4965792;28;80734;-74
2021/01/05 02:54:59;;;;;;;4.22;2.47;;;1.60;64.30;;;;;;4966478;28;80348;-73
2021/01/05 02:57:43;;;;;;;6.20;2.42;;;1.50;64.30;;;;;;4966100;28;81443;-73
2021/01/05 03:00:22;;;;;;;3.92;1.88;;;1.50;64.30;;;;;;4965796;28;80717;-74
2021/01/05 03:03:21;;;;;;;3.58;1.92;;;1.50;64.40;;;;;;4952592;28;82174;-73
2021/01/05 03:05:49;;;;;;;7.25;3.28;;;1.40;64.50;;;;;;4985814;28;80192;-72
2021/01/05 03:08:21;;;;;;;4.75;2.42;;;1.40;64.50;;;;;;4985458;28;79899;-74
2021/01/05 03:10:50;;;;;;;2.95;1.88;;;1.30;64.60;;;;;;5009390;28;80569;-71
2021/01/05 03:13:56;;;;;;;6.53;2.97;;;1.30;64.60;;;;;;5009186;28;81197;-72
2021/01/05 03:16:29;;;;;;;5.72;2.83;;;1.30;64.80;;;;;;5022206;28;80013;-74
2021/01/05 03:19:19;;;;;;;4.68;2.70;;;1.20;64.90;;;;;;5027691;28;81063;-73
2021/01/05 03:21:51;;;;;;;4.75;2.92;;;1.20;65.00;;;;;;5027790;28;79835;-72
2021/01/05 03:24:17;;;;;;;4.95;2.20;;;1.20;65.00;;;;;;5028200;28;81225;-74
2021/01/05 03:26:46;;;;;;;7.75;2.55;;;1.20;64.90;;;;;;5027229;28;80704;-74
2021/01/05 03:29:15;;;;;;;4.47;1.88;;;1.20;65.00;;;;;;5027037;28;81145;-74
2021/01/05 03:31:48;;;;;;;4.00;1.85;;;1.10;65.10;;;;;;5008996;28;81438;-74
2021/01/05 03:34:14;;;;;;;3.95;1.92;;;1.10;65.10;;;;;;5027726;28;80615;-73
2021/01/05 03:36:39;;;;;;;4.45;1.98;;;1.00;65.30;;;;;;5027016;28;80281;-74
2021/01/05 03:39:06;;;;;;;2.97;2.00;;;0.90;65.60;;;;;;5009287;28;80813;-75
2021/01/05 03:41:33;;;;;;;5.22;2.25;;;0.80;65.90;;;;;;5027526;28;79784;-75
2021/01/05 03:43:58;;;;;;;5.15;2.40;;;0.70;66.00;;;;;;5027044;28;80606;-74
2021/01/05 03:46:29;;;;;;;8.65;2.10;;;0.70;66.20;;;;;;5008834;28;80380;-74
2021/01/05 03:48:56;;;;;;;5.32;2.33;;;0.70;66.00;;;;;;5008963;28;80281;-74
2021/01/05 03:51:22;;;;;;;4.80;2.35;;;0.60;66.10;;;;;;5027722;28;80827;-72
2021/01/05 03:53:48;;;;;;;4.25;2.25;;;0.60;66.00;;;;;;5026639;28;81255;-73
2021/01/05 03:56:14;;;;;;;8.23;3.22;;;0.60;66.30;;;;;;5026959;28;80669;-74
2021/01/05 03:58:40;;;;;;;9.75;2.60;;;0.60;66.30;;;;;;5009094;28;81020;-74
2021/01/05 04:01:06;;;;;;;4.68;2.53;;;0.60;66.50;;;;;;5008144;28;81531;-74
2021/01/05 04:03:33;;;;;;;8.30;2.28;;;0.50;66.30;;;;;;5027002;28;81181;-74
2021/01/05 04:06:00;;;;;;;6.47;2.20;;;0.60;66.30;;;;;;4992057;28;80702;-74
2021/01/05 04:08:33;;;;;;;4.60;2.17;;;0.60;66.30;;;;;;5024918;28;80669;-73
2021/01/05 04:11:01;;;;;;;5.35;2.20;;;0.60;66.30;;;;;;5025437;28;80943;-73
2021/01/05 04:13:28;;;;;;;7.55;2.67;;;0.50;66.30;;;;;;5025512;28;80611;-74
2021/01/05 04:15:54;;;;;;;5.00;2.78;;;0.50;66.20;;;;;;5027126;28;80147;-74
2021/01/05 04:18:19;;;;;;;6.03;3.10;;;0.50;66.40;;;;;;5026343;28;80563;-74
2021/01/05 04:21:09;;;;;;;4.68;2.45;;;0.40;66.30;;;;;;5026283;28;79978;-73
2021/01/05 04:24:22;;;;;;;5.10;2.47;;;0.40;66.40;;;;;;5025316;28;80606;-73
2021/01/05 04:27:14;;;;;;;5.53;2.50;;;0.40;66.60;;;;;;5008121;28;79951;-73
2021/01/05 04:30:01;;;;;;;8.30;2.80;;;0.40;66.50;;;;;;4974377;28;80826;-73
2021/01/05 04:32:32;;;;;;;6.38;2.72;;;0.50;66.50;;;;;;5025877;28;80643;-73
2021/01/05 04:35:27;;;;;;;4.57;2.03;;;0.50;66.50;;;;;;4975763;28;80756;-73
2021/01/05 04:38:01;;;;;;;3.78;2.08;;;0.50;66.50;;;;;;5008052;28;80711;-73
2021/01/05 04:40:51;;;;;;;8.18;3.58;;;0.40;66.70;;;;;;5019044;28;80850;-73
2021/01/05 04:43:45;;;;;;;5.07;2.23;;;0.40;66.70;;;;;;5009749;28;80255;-73
2021/01/05 04:49:58;;;;;;;6.25;2.53;;;0.40;67.10;;;;;;5025871;28;79879;-73
2021/01/05 04:52:36;;;;;;;3.50;2.00;;;0.30;67.00;;;;;;5008730;28;80780;-73
2021/01/05 04:55:48;;;;;;;2.75;1.73;;;0.30;67.10;;;;;;5025264;28;80288;-73
2021/01/05 04:58:58;;;;;;;4.83;2.27;;;0.30;67.00;;;;;;5008045;28;79835;-73
2021/01/05 05:01:48;;;;;;;4.20;2.03;;;0.30;66.90;;;;;;4997621;28;80556;-72
2021/01/05 05:05:10;;;;;;;7.07;1.97;;;0.20;67.10;;;;;;4963199;28;80812;-72
2021/01/05 05:08:13;;;;;;;4.97;2.63;;;0.30;67.00;;;;;;4947536;28;79897;-73
2021/01/05 05:11:06;;;;;;;7.00;3.40;;;0.30;67.30;;;;;;4964127;28;80588;-72
2021/01/05 05:14:02;;;;;;;4.22;2.28;;;0.20;67.30;;;;;;4963555;28;80838;-73
2021/01/05 05:17:18;;;;;;;4.93;2.53;;;0.20;67.50;;;;;;4964166;28;79925;-72
2021/01/05 05:20:35;;;;;;;5.80;2.37;;;0.20;67.50;;;;;;4947747;28;82780;-72
2021/01/05 05:23:30;;;;;;;7.47;2.63;;;0.20;67.60;;;;;;4938822;28;81307;-72
2021/01/05 05:26:18;;;;;;;7.80;2.00;;;0.20;67.50;;;;;;4947820;28;80955;-73
2021/01/05 05:28:56;;;;;;;4.30;1.83;;;0.20;67.50;;;;;;4968082;28;79947;-73
2021/01/05 05:31:29;;;;;;;3.43;1.57;;;0.20;67.40;;;;;;4966833;28;80115;-73
2021/01/05 05:34:02;;;;;;;4.20;2.47;;;0.10;67.40;;;;;;4966584;28;81162;-73
2021/01/05 05:37:25;;;;;;;6.30;2.13;;;0.10;67.50;;;;;;4950775;28;80253;-74
2021/01/05 05:40:18;;;;;;;3.60;1.90;;;0.00;67.40;;;;;;4908863;28;81369;-73
2021/01/05 05:43:21;;;;;;;3.57;1.70;;;0.00;67.80;;;;;;4950795;28;80401;-74
2021/01/05 05:46:13;;;;;;;3.13;1.67;;;-3276.70;67.80;;;;;;4950639;28;79835;-73
2021/01/05 05:49:28;;;;;;;3.10;1.87;;;0.00;67.90;;;;;;5000262;28;81232;-74
2021/01/05 05:52:28;;;;;;;5.67;3.00;;;-3276.70;67.80;;;;;;5010545;28;79932;-73
2021/01/05 05:55:42;;;;;;;7.50;2.47;;;-3276.70;68.20;;;;;;5027807;28;80915;-74
2021/01/05 05:58:11;;;;;;;4.57;2.47;;;-3276.60;68.10;;;;;;5027824;28;81121;-74
2021/01/05 06:00:40;;;;;;;3.60;1.90;;;-3276.50;68.10;;;;;;4993601;28;79877;-73
2021/01/05 06:03:10;;;;;;;6.80;2.03;;;-3276.60;68.10;;;;;;5029110;28;80848;-73
2021/01/05 06:05:38;;;;;;;4.40;1.95;;;-3276.60;68.20;;;;;;5028806;28;80176;-73
2021/01/05 06:08:06;;;;;;;5.70;3.13;;;-3276.60;68.20;;;;;;5028721;28;80692;-72
2021/01/05 06:10:37;;;;;;;4.33;2.07;;;-3276.70;68.20;;;;;;5028828;28;80384;-74
2021/01/05 06:13:22;;;;;;;8.20;2.77;;;-3276.60;68.30;;;;;;5003272;28;80786;-73
2021/01/05 06:19:10;;;;;;;5.50;2.87;;;-3276.60;68.80;;;;;;5012661;28;80391;-73
2021/01/05 06:22:24;;;;;;;8.83;2.90;;;-3276.70;68.70;;;;;;5027719;28;80951;-73
2021/01/05 06:25:18;;;;;;;7.20;2.60;;;-3276.60;68.60;;;;;;5022428;28;80606;-74
2021/01/05 06:27:44;;;;;;;5.83;2.13;;;-3276.70;68.60;;;;;;5009928;28;80928;-74
2021/01/05 06:30:10;;;;;;;6.80;2.70;;;-3276.70;68.40;;;;;;5009688;28;79920;-73
2021/01/05 06:32:39;;;;;;;5.33;2.40;;;-3276.70;68.50;;;;;;5028585;28;80398;-73
2021/01/05 06:35:06;;;;;;;14.97;3.50;;;-3276.70;68.30;;;;;;5010229;28;81064;-73
2021/01/05 06:37:32;;;;;;;6.50;3.33;;;-3276.70;68.20;;;;;;5010180;28;82318;-74
2021/01/05 06:39:58;;;;;;;10.13;4.17;;;-3276.70;68.10;;;;;;5028581;28;80468;-72
2021/01/05 06:42:24;;;;;;;8.50;3.87;;;-3276.70;68.10;;;;;;5028559;28;79767;-71
2021/01/05 06:44:50;;;;;;;7.10;3.50;;;-3276.70;68.00;;;;;;5009525;28;82888;-72
2021/01/05 06:47:16;;;;;;;9.53;3.97;;;-3276.60;68.10;;;;;;5009847;28;80531;-72
2021/01/05 06:49:42;;;;;;;7.97;3.80;;;-3276.70;68.10;;;;;;5027829;28;79881;-73
2021/01/05 06:52:09;;;;;;;8.23;3.30;;;-3276.70;68.10;;;;;;5026611;28;80422;-72
2021/01/05 06:54:34;;;;;;;8.93;4.20;;;-3276.60;68.10;;;;;;5028603;28;79733;-71
2021/01/05 06:57:01;;;;;;;11.83;4.30;;;-3276.60;68.10;;;;;;5027991;28;80085;-74
2021/01/05 06:59:28;;;;;;;10.47;3.90;;;-3276.60;68.00;;;;;;5009322;28;80756;-74
2021/01/05 07:01:59;;;;;;;11.30;3.83;;;-3276.60;68.00;;;;;;5027711;28;80410;-71
2021/01/05 07:04:25;;;;;;;9.27;4.07;;;-3276.60;68.00;;;;;;5006867;28;80151;-73
2021/01/05 07:06:53;;;;;;;12.38;4.43;;;-3276.50;67.90;;;;;;5027778;28;80480;-72
2021/01/05 07:09:20;;;;;;;11.27;4.97;;;-3276.50;68.00;;;;;;4992939;28;80756;-73
2021/01/05 07:11:48;;;;;;;19.53;4.50;;;-3276.50;68.00;;;;;;5009594;28;80463;-73
2021/01/05 07:14:19;;;;;;;14.27;4.37;;;-3276.50;68.00;;;;;;5028005;28;80798;-75
2021/01/05 07:16:46;;;;;;;10.30;4.00;;;-3276.50;68.00;;;;;;5026615;28;80663;-72
2021/01/05 07:19:12;;;;;;;9.57;3.80;;;-3276.40;68.00;;;;;;5026931;28;80474;-74
2021/01/05 07:21:38;;;;;;;8.93;3.90;;;-3276.40;68.00;;;;;;5009423;28;83471;-72
2021/01/05 07:24:10;;;;;;;14.83;5.50;;;-3276.40;68.00;;;;;;5027235;28;80591;-71
2021/01/05 07:26:39;;;;;;;13.17;4.73;;;-3276.50;67.90;;;;;;5009122;28;80054;-71
2021/01/05 07:29:07;;;;;;;10.17;4.70;;;-3276.50;67.80;;;;;;5009017;28;79865;-74
2021/01/05 07:31:33;;;;;;;12.23;5.73;;;-3276.40;67.80;;;;;;5027648;28;80955;-73
2021/01/05 07:33:59;;;;;;;11.20;4.30;;;-3276.40;67.80;;;;;;5026805;28;80968;-72
2021/01/05 07:36:31;;;;;;;12.00;4.80;;;-3276.40;67.90;;;;;;5027363;28;80358;-67
2021/01/05 07:38:57;;;;;;;16.40;5.70;;;-3276.40;68.10;;;;;;5027115;28;80608;-65
2021/01/05 07:41:23;;;;;;;79.93;10.73;;;-3276.30;68.20;;;;;;5027315;28;80380;-71
2021/01/05 07:43:49;;;;;;;15.87;4.60;;;-3276.30;68.30;;;;;;5024633;28;82296;-74
2021/01/05 07:46:15;;;;;;;20.57;6.70;;;-3276.40;68.20;;;;;;5027391;28;82988;-68
2021/01/05 07:48:41;;;;;;;14.87;5.60;;;-3276.40;68.10;;;;;;5025565;28;80377;-66
2021/01/05 07:51:08;;;;;;;20.77;5.50;;;-3276.50;68.00;;;;;;5025017;28;80550;-65
2021/01/05 07:53:34;;;;;;;8.97;4.53;;;-3276.50;68.00;;;;;;5026602;28;80425;-68
2021/01/05 07:56:00;;;;;;;16.30;5.37;;;-3276.50;67.90;;;;;;5026682;28;80440;-72
2021/01/05 07:58:25;;;;;;;10.20;4.57;;;-3276.50;68.00;;;;;;5026510;28;81537;-73
2021/01/05 08:00:51;;;;;;;12.60;3.50;;;-3276.50;68.00;;;;;;5026442;28;80893;-70
2021/01/05 08:03:17;;;;;;;19.43;4.03;;;-3276.50;68.10;;;;;;5026884;28;80613;-71
2021/01/05 08:05:43;;;;;;;13.73;4.67;;;-3276.50;68.10;;;;;;5027305;28;80359;-71
2021/01/05 08:08:09;;;;;;;13.70;5.30;;;-3276.40;68.10;;;;;;5008667;28;83134;-73
2021/01/05 08:10:37;;;;;;;18.33;7.23;;;-3276.50;68.10;;;;;;5027059;28;80500;-72
2021/01/05 08:13:09;;;;;;;21.60;8.03;;;-3276.60;68.10;;;;;;5026425;28;79800;-76
2021/01/05 08:15:35;;;;;;;20.43;7.67;;;-3276.60;67.90;;;;;;5027681;28;79658;-64
2021/01/05 08:18:01;;;;;;;23.33;8.60;;;-3276.60;67.70;;;;;;5026819;28;80344;-64
2021/01/05 08:20:30;;;;;;;34.67;13.90;;;-3276.70;67.50;;;;;;5026661;28;81456;-62
2021/01/05 08:22:57;;;;;;;17.37;7.83;;;-3276.70;67.20;;;;;;5024275;28;83088;-62
2021/01/05 08:25:23;;;;;;;21.20;7.20;;;-3276.70;67.00;;;;;;5008184;28;84873;-62
2021/01/05 08:27:50;;;;;;;21.63;6.10;;;0.00;66.90;;;;;;5026772;28;80389;-68
2021/01/05 08:30:24;;;;;;;24.33;9.20;;;0.00;66.70;;;;;;5026649;28;79930;-67
2021/01/05 08:32:52;;;;;;;21.77;7.50;;;0.00;66.50;;;;;;5027122;28;79950;-62
2021/01/05 08:35:21;;;;;;;23.47;5.83;;;0.00;66.40;;;;;;5026847;28;80533;-64
2021/01/05 08:37:47;;;;;;;10.40;4.70;;;0.10;66.30;;;;;;5026923;28;80698;-70
2021/01/05 08:40:17;;;;;;;10.20;3.97;;;0.20;66.00;;;;;;5026490;28;79895;-66
2021/01/05 08:42:43;;;;;;;9.27;4.23;;;0.30;65.50;;;;;;5026358;28;81835;-73
2021/01/05 08:45:09;;;;;;;10.07;3.67;;;0.40;65.30;;;;;;5026970;28;79833;-74
2021/01/05 08:47:35;;;;;;;9.70;4.00;;;0.50;64.80;;;;;;5026680;28;80690;-70
2021/01/05 08:50:03;;;;;;;10.37;3.90;;;0.60;64.60;;;;;;5027150;28;79827;-73
2021/01/05 08:52:29;;;;;;;15.20;3.90;;;0.90;64.20;;;;;;5026982;28;80645;-69
2021/01/05 08:54:54;;;;;;;11.30;3.83;;;1.00;63.60;;;;;;5026368;28;81195;-63
2021/01/05 08:57:20;;;;;;;12.20;3.90;;;1.20;63.20;;;;;;5026189;28;80793;-69
2021/01/05 08:59:47;;;;;;;10.20;3.90;;;1.20;63.00;;;;;;5026591;28;80206;-68
2021/01/05 09:02:13;;;;;;;11.17;5.07;;;1.40;62.70;;;;;;5029041;28;80590;-70
2021/01/05 09:04:39;;;;;;;111.30;16.60;;;1.50;62.50;;;;;;5029783;28;80199;-66
2021/01/05 09:07:05;;;;;;;10.50;4.73;;;1.60;62.20;;;;;;5027385;28;83441;-69
2021/01/05 09:09:31;;;;;;;22.23;6.88;;;1.80;61.70;;;;;;5029383;28;82791;-64
2021/01/05 09:11:58;;;;;;;17.10;5.53;;;1.90;61.50;;;;;;5029835;28;80614;-70
2021/01/05 09:14:25;;;;;;;12.33;5.90;;;2.00;61.40;;;;;;5029873;28;80125;-68
2021/01/05 09:17:01;;;;;;;15.57;6.28;;;2.10;61.50;;;;;;5029619;28;80638;-71
2021/01/05 09:19:28;;;;;;;11.93;5.47;;;2.30;61.30;;;;;;5011680;28;83364;-67
2021/01/05 09:21:54;;;;;;;12.18;6.35;;;2.40;61.30;;;;;;5029898;28;80453;-63
2021/01/05 09:24:21;;;;;;;14.77;6.07;;;2.40;61.20;;;;;;5029617;28;80387;-61
2021/01/05 09:26:54;;;;;;;24.50;7.25;;;2.50;61.10;;;;;;5011049;28;83469;-67
2021/01/05 09:29:21;;;;;;;19.13;8.13;;;2.80;61.10;;;;;;5029583;28;81630;-62
2021/01/05 09:31:48;;;;;;;14.70;8.02;;;3.30;60.50;;;;;;5029955;28;79855;-67
2021/01/05 09:34:17;;;;;;;20.50;8.60;;;4.00;58.80;;;;;;5029444;28;80211;-65
2021/01/05 09:36:43;;;;;;;19.63;8.02;;;4.70;56.70;;;;;;5029644;28;80640;-65
2021/01/05 09:39:12;;;;;;;17.35;7.80;;;5.00;55.80;;;;;;5029530;28;80144;-63
2021/01/05 09:41:40;;;;;;;16.95;9.30;;;5.40;54.60;;;;;;5029034;28;80604;-62
2021/01/05 09:44:07;;;;;;;14.95;8.18;;;6.00;53.10;;;;;;5010590;28;83418;-63
2021/01/05 09:46:33;;;;;;;16.48;8.35;;;6.60;51.50;;;;;;5028872;28;81763;-63
2021/01/05 09:48:59;;;;;;;25.08;9.02;;;7.20;50.00;;;;;;5028937;28;81584;-63
2021/01/05 09:51:29;;;;;;;18.65;8.27;;;7.40;49.10;;;;;;5029180;28;80565;-62
2021/01/05 09:53:56;;;;;;;14.98;7.85;;;7.70;48.30;;;;;;5029286;28;80035;-63
2021/01/05 09:56:22;;;;;;;14.80;6.80;;;8.10;47.30;;;;;;5029211;28;80439;-63
2021/01/05 09:58:48;;;;;;;14.65;6.88;;;8.30;46.80;;;;;;5029132;28;80143;-63
2021/01/05 10:01:22;;;;;;;9.85;5.90;;;8.60;46.00;;;;;;5028725;28;80444;-66
2021/01/05 10:03:47;;;;;;;16.23;6.63;;;9.40;44.40;;;;;;5029763;28;79728;-66
2021/01/05 10:06:13;;;;;;;10.05;6.40;;;9.90;43.00;;;;;;5029081;28;80504;-68
2021/01/05 10:08:39;;;;;;;9.32;6.20;;;9.30;43.40;;;;;;5028908;28;80240;-65
2021/01/05 10:11:06;;;;;;;15.27;5.70;;;9.20;43.80;;;;;;5028948;28;80247;-66
2021/01/05 10:13:31;;;;;;;15.40;7.03;;;9.70;42.60;;;;;;5028360;28;80346;-67
2021/01/05 10:15:57;;;;;;;19.27;6.47;;;10.10;41.80;;;;;;5028853;28;80587;-64
2021/01/05 10:18:23;;;;;;;10.98;6.57;;;10.60;40.90;;;;;;5028855;28;80156;-64
2021/01/05 10:20:49;;;;;;;13.20;6.40;;;11.40;39.20;;;;;;5028675;28;80607;-66
2021/01/05 10:23:15;;;;;;;14.43;6.43;;;12.40;37.60;;;;;;5028722;28;80036;-66
2021/01/05 10:25:41;;;;;;;12.20;5.95;;;13.30;36.00;;;;;;5028419;28;80674;-66
2021/01/05 10:28:06;;;;;;;13.43;6.68;;;13.20;35.40;;;;;;5028707;28;80172;-64
2021/01/05 10:30:32;;;;;;;12.40;6.05;;;12.50;36.60;;;;;;5028518;28;80240;-69
2021/01/05 10:32:58;;;;;;;12.25;6.05;;;13.30;35.80;;;;;;5028731;28;79793;-65
2021/01/05 10:35:24;;;;;;;12.20;5.68;;;14.30;34.40;;;;;;5028497;28;80938;-66
2021/01/05 10:37:50;;;;;;;10.00;6.05;;;15.70;32.20;;;;;;5028278;28;80429;-69
2021/01/05 10:40:18;;;;;;;11.18;6.22;;;16.60;30.80;;;;;;5028052;28;82058;-68
2021/01/05 10:42:45;;;;;;;17.13;7.43;;;17.50;29.60;;;;;;5028176;28;79807;-68
2021/01/05 10:45:14;;;;;;;10.68;6.57;;;18.40;28.60;;;;;;5025707;28;82163;-64
2021/01/05 10:47:40;;;;;;;12.77;7.63;;;19.20;27.60;;;;;;5027058;28;82680;-65
2021/01/05 10:50:09;;;;;;;13.05;6.13;;;20.20;26.40;;;;;;5027688;28;80561;-66
2021/01/05 10:52:35;;;;;;;11.50;6.20;;;20.50;25.80;;;;;;5027828;28;80294;-65
2021/01/05 10:55:01;;;;;;;13.50;7.13;;;20.20;26.20;;;;;;5028285;28;81079;-70
2021/01/05 10:57:27;;;;;;;14.07;6.05;;;19.20;27.10;;;;;;5028187;28;79910;-68
2021/01/05 10:59:52;;;;;;;10.13;5.80;;;17.80;28.80;;;;;;5028023;28;80908;-68
2021/01/05 11:02:18;;;;;;;13.30;7.20;;;18.10;28.70;;;;;;5028146;28;79919;-69
2021/01/05 11:04:44;;;;;;;12.68;7.45;;;19.20;27.70;;;;;;5027513;28;81781;-68
2021/01/05 11:07:15;;;;;;;13.50;7.15;;;19.90;26.80;;;;;;5027957;28;81493;-67
2021/01/05 11:09:42;;;;;;;11.85;5.95;;;19.90;26.70;;;;;;5028121;28;79798;-65
2021/01/05 11:12:18;;;;;;;16.67;7.00;;;20.70;26.00;;;;;;5027839;28;80266;-66
2021/01/05 11:14:44;;;;;;;11.05;5.90;;;20.50;26.00;;;;;;5027308;28;81802;-66
2021/01/05 11:17:10;;;;;;;9.10;5.53;;;21.20;25.30;;;;;;5027115;28;81419;-67
2021/01/05 11:19:37;;;;;;;9.02;5.95;;;21.60;24.90;;;;;;5027903;28;80992;-66
2021/01/05 11:22:15;;;;;;;11.65;6.22;;;21.40;25.00;;;;;;5027898;28;80205;-67
2021/01/05 11:24:41;;;;;;;11.25;6.05;;;21.30;25.00;;;;;;5027071;28;79841;-66
2021/01/05 11:27:08;;;;;;;10.23;5.85;;;21.60;24.80;;;;;;5027447;28;80256;-67
2021/01/05 11:29:35;;;;;;;8.88;4.72;;;21.10;24.90;;;;;;5027199;28;80601;-66
2021/01/05 11:32:09;;;;;;;11.73;5.68;;;20.50;25.60;;;;;;5026880;28;79758;-69
2021/01/05 11:34:37;;;;;;;9.93;5.43;;;22.00;24.30;;;;;;5027351;28;80652;-65
2021/01/05 11:37:09;;;;;;;11.35;5.22;;;23.70;22.70;;;;;;5027819;28;79955;-63
2021/01/05 11:39:36;;;;;;;6.70;3.83;;;24.70;21.80;;;;;;5027173;28;80633;-63
2021/01/05 11:42:04;;;;;;;8.77;4.95;;;25.70;20.80;;;;;;5027118;28;81277;-67
2021/01/05 11:44:30;;;;;;;6.65;4.22;;;25.60;20.70;;;;;;5026530;28;82758;-66
2021/01/05 11:46:56;;;;;;;7.53;4.85;;;24.20;21.90;;;;;;5027519;28;79754;-65
2021/01/05 11:49:22;;;;;;;10.32;4.70;;;23.70;22.60;;;;;;5026945;28;80555;-63
2021/01/05 11:51:53;;;;;;;7.55;3.00;;;24.60;21.80;;;;;;5008486;28;80374;-67
2021/01/05 11:54:21;;;;;;;5.70;3.60;;;24.40;21.70;;;;;;5027279;28;80621;-65
2021/01/05 11:56:47;;;;;;;8.50;3.75;;;24.20;21.80;;;;;;5026841;28;81478;-65
2021/01/05 11:59:13;;;;;;;6.22;3.25;;;24.70;21.30;;;;;;5027050;28;80544;-68
2021/01/05 12:01:39;;;;;;;8.95;3.80;;;25.30;20.60;;;;;;5026570;28;80020;-66
2021/01/05 12:04:07;;;;;;;5.18;3.28;;;25.70;20.40;;;;;;5026904;28;80434;-67
2021/01/05 12:06:33;;;;;;;7.78;4.45;;;26.60;19.60;;;;;;5026558;28;80128;-64
2021/01/05 12:08:59;;;;;;;6.63;3.67;;;26.30;19.80;;;;;;5026569;28;80510;-68
2021/01/05 12:11:32;;;;;;;7.13;3.35;;;24.50;21.30;;;;;;5027332;28;79629;-66
2021/01/05 12:13:59;;;;;;;6.75;3.33;;;24.20;21.30;;;;;;5008227;28;81775;-68
2021/01/05 12:16:43;;;;;;;10.50;3.60;;;23.00;22.30;;;;;;5026812;28;80197;-68
2021/01/05 12:19:16;;;;;;;8.30;4.07;;;22.50;22.90;;;;;;5026417;28;80572;-66
2021/01/05 12:21:43;;;;;;;5.72;2.80;;;24.20;21.40;;;;;;5027389;28;80370;-68
2021/01/05 12:24:14;;;;;;;10.25;3.13;;;25.50;20.20;;;;;;5026910;28;79741;-65
2021/01/05 12:26:40;;;;;;;8.43;4.18;;;26.10;19.70;;;;;;5026276;28;81376;-68
2021/01/05 12:29:22;;;;;;;3.15;2.33;;;26.20;19.70;;;;;;5026617;28;81064;-67
2021/01/05 12:31:49;;;;;;;6.22;3.08;;;26.40;19.60;;;;;;5026614;28;80313;-64
2021/01/05 12:34:17;;;;;;;7.75;2.88;;;26.90;19.00;;;;;;5026972;28;79854;-67
2021/01/05 12:36:43;;;;;;;5.68;2.95;;;26.80;19.10;;;;;;5026285;28;80297;-68
2021/01/05 12:39:27;;;;;;;6.22;3.20;;;26.50;19.40;;;;;;5026570;28;80482;-64
2021/01/05 12:41:54;;;;;;;7.15;3.55;;;26.60;19.30;;;;;;5026472;28;80318;-68
2021/01/05 12:44:23;;;;;;;5.55;2.90;;;26.30;19.40;;;;;;5026209;28;80277;-67
2021/01/05 12:46:51;;;;;;;7.82;3.00;;;26.00;19.30;;;;;;5026681;28;79813;-64
2021/01/05 12:49:17;;;;;;;5.45;2.20;;;26.00;19.20;;;;;;5026116;28;80563;-64
2021/01/05 12:51:45;;;;;;;4.65;2.50;;;24.60;20.20;;;;;;5026468;28;79752;-68
2021/01/05 12:54:13;;;;;;;7.90;3.45;;;23.10;21.40;;;;;;5026395;28;79808;-66
2021/01/05 12:56:39;;;;;;;3.60;2.20;;;21.40;22.80;;;;;;5026826;28;80472;-64
2021/01/05 12:59:05;;;;;;;5.30;2.35;;;20.50;23.80;;;;;;5026176;28;81787;-67
2021/01/05 13:01:31;;;;;;;4.07;2.30;;;21.50;23.00;;;;;;5025591;28;81314;-65
2021/01/05 13:03:56;;;;;;;6.47;2.10;;;21.40;22.90;;;;;;5026609;28;80461;-65
2021/01/05 13:06:23;;;;;;;5.43;2.70;;;20.70;23.50;;;;;;5026483;28;79926;-62
2021/01/05 13:08:49;;;;;;;5.03;2.67;;;20.00;24.40;;;;;;5026038;28;80480;-63
2021/01/05 13:11:21;;;;;;;4.38;2.50;;;19.50;24.70;;;;;;5026279;28;80451;-68
2021/01/05 13:13:48;;;;;;;3.17;1.95;;;19.70;24.60;;;;;;5007774;28;83282;-66
2021/01/05 13:16:24;;;;;;;3.95;2.33;;;20.90;23.60;;;;;;5026729;28;80137;-69
2021/01/05 13:18:54;;;;;;;4.07;2.58;;;22.00;22.50;;;;;;5026139;28;80578;-69
2021/01/05 13:21:35;;;;;;;5.30;3.13;;;22.50;22.10;;;;;;5026096;28;80339;-66
2021/01/05 13:24:30;;;;;;;5.97;2.50;;;21.50;22.80;;;;;;5026085;28;80646;-65
2021/01/05 13:27:04;;;;;;;6.60;2.35;;;21.40;23.10;;;;;;5005076;28;80048;-67
2021/01/05 13:29:33;;;;;;;3.97;2.20;;;21.40;22.80;;;;;;5026136;28;80678;-67
2021/01/05 13:32:01;;;;;;;3.92;2.30;;;21.10;23.00;;;;;;5026085;28;80411;-66
2021/01/05 13:34:32;;;;;;;3.72;2.13;;;21.90;22.30;;;;;;5025583;28;80658;-63
2021/01/05 13:37:00;;;;;;;6.47;2.40;;;21.90;22.20;;;;;;5025892;28;81245;-64